sensor_id;sensor_type;location;lat;lon;timestamp;temperature;humidity
51793;DHT22;37850;53.178;6.376;2023-05-15T00:00:59;11.50;99.90
51793;DHT22;37850;53.178;6.376;2023-05-15T00:03:26;11.60;99.90
51793;DHT22;37850;53.178;6.376;2023-05-15T00:05:52;11.50;99.90
51793;DHT22;37850;53.178;6.376;2023-05-15T00:08:18;11.50;99.90
51793;DHT22;37850;53.178;6.376;2023-05-15T00:10:43;11.50;99.90
51793;DHT22;37850;53.178;6.376;2023-05-15T00:13:09;11.50;99.90
51793;DHT22;37850;53.178;6.376;2023-05-15T00:15:35;11.50;99.90
51793;DHT22;37850;53.178;6.376;2023-05-15T00:18:00;11.50;99.90
51793;DHT22;37850;53.178;6.376;2023-05-15T00:20:26;11.50;99.90
51793;DHT22;37850;53.178;6.376;2023-05-15T00:22:52;11.40;99.90
51793;DHT22;37850;53.178;6.376;2023-05-15T00:25:17;11.40;99.90
51793;DHT22;37850;53.178;6.376;2023-05-15T00:27:44;11.40;99.90
51793;DHT22;37850;53.178;6.376;2023-05-15T00:30:11;11.40;99.90
51793;DHT22;37850;53.178;6.376;2023-05-15T00:32:38;11.40;99.90
51793;DHT22;37850;53.178;6.376;2023-05-15T00:35:04;11.40;99.90
51793;DHT22;37850;53.178;6.376;2023-05-15T00:37:30;11.30;99.90
51793;DHT22;37850;53.178;6.376;2023-05-15T00:39:56;11.40;99.90
51793;DHT22;37850;53.178;6.376;2023-05-15T00:42:23;11.30;99.90
51793;DHT22;37850;53.178;6.376;2023-05-15T00:44:50;11.30;99.90
51793;DHT22;37850;53.178;6.376;2023-05-15T00:47:19;11.30;99.90
51793;DHT22;37850;53.178;6.376;2023-05-15T00:49:48;11.30;99.90
51793;DHT22;37850;53.178;6.376;2023-05-15T00:52:15;11.30;99.90
51793;DHT22;37850;53.178;6.376;2023-05-15T00:54:41;11.30;99.90
51793;DHT22;37850;53.178;6.376;2023-05-15T00:57:08;11.30;99.90
51793;DHT22;37850;53.178;6.376;2023-05-15T00:59:34;11.30;99.90
51793;DHT22;37850;53.178;6.376;2023-05-15T01:02:01;11.60;99.90
51793;DHT22;37850;53.178;6.376;2023-05-15T01:04:26;11.30;99.90
51793;DHT22;37850;53.178;6.376;2023-05-15T01:06:52;11.20;99.90
51793;DHT22;37850;53.178;6.376;2023-05-15T01:09:18;11.20;99.90
51793;DHT22;37850;53.178;6.376;2023-05-15T01:11:46;11.20;99.90
51793;DHT22;37850;53.178;6.376;2023-05-15T01:14:12;11.30;99.90
51793;DHT22;37850;53.178;6.376;2023-05-15T01:16:37;11.30;99.90
51793;DHT22;37850;53.178;6.376;2023-05-15T01:19:04;11.20;99.90
51793;DHT22;37850;53.178;6.376;2023-05-15T01:24:47;11.10;99.90
51793;DHT22;37850;53.178;6.376;2023-05-15T01:27:41;11.10;99.90
51793;DHT22;37850;53.178;6.376;2023-05-15T01:30:28;11.10;99.90
51793;DHT22;37850;53.178;6.376;2023-05-15T01:33:04;11.00;99.90
51793;DHT22;37850;53.178;6.376;2023-05-15T01:35:44;11.00;99.90
51793;DHT22;37850;53.178;6.376;2023-05-15T01:38:26;10.90;99.90
51793;DHT22;37850;53.178;6.376;2023-05-15T01:41:07;10.90;99.90
51793;DHT22;37850;53.178;6.376;2023-05-15T01:43:38;10.90;99.90
51793;DHT22;37850;53.178;6.376;2023-05-15T01:46:05;10.90;99.90
51793;DHT22;37850;53.178;6.376;2023-05-15T01:48:32;11.80;99.90
51793;DHT22;37850;53.178;6.376;2023-05-15T01:51:02;11.00;99.90
51793;DHT22;37850;53.178;6.376;2023-05-15T01:53:32;10.90;99.90
51793;DHT22;37850;53.178;6.376;2023-05-15T01:55:59;10.80;99.90
51793;DHT22;37850;53.178;6.376;2023-05-15T01:58:26;10.80;99.90
51793;DHT22;37850;53.178;6.376;2023-05-15T02:00:53;10.80;99.90
51793;DHT22;37850;53.178;6.376;2023-05-15T02:03:19;10.70;99.90
51793;DHT22;37850;53.178;6.376;2023-05-15T02:05:46;10.70;99.90
51793;DHT22;37850;53.178;6.376;2023-05-15T02:08:11;10.70;99.90
51793;DHT22;37850;53.178;6.376;2023-05-15T02:10:38;10.70;99.90
51793;DHT22;37850;53.178;6.376;2023-05-15T02:13:07;10.70;99.90
51793;DHT22;37850;53.178;6.376;2023-05-15T02:15:34;10.70;99.90
51793;DHT22;37850;53.178;6.376;2023-05-15T02:18:00;10.60;99.90
51793;DHT22;37850;53.178;6.376;2023-05-15T02:20:26;10.60;99.90
51793;DHT22;37850;53.178;6.376;2023-05-15T02:22:52;10.80;99.90
51793;DHT22;37850;53.178;6.376;2023-05-15T02:25:18;10.60;99.90
51793;DHT22;37850;53.178;6.376;2023-05-15T02:27:59;10.50;99.90
51793;DHT22;37850;53.178;6.376;2023-05-15T02:30:45;10.50;99.90
51793;DHT22;37850;53.178;6.376;2023-05-15T02:33:34;10.40;99.90
51793;DHT22;37850;53.178;6.376;2023-05-15T02:36:08;10.50;99.90
51793;DHT22;37850;53.178;6.376;2023-05-15T02:38:47;10.90;99.90
51793;DHT22;37850;53.178;6.376;2023-05-15T02:41:14;10.40;99.90
51793;DHT22;37850;53.178;6.376;2023-05-15T02:43:41;10.40;99.90
51793;DHT22;37850;53.178;6.376;2023-05-15T02:46:08;10.40;99.90
51793;DHT22;37850;53.178;6.376;2023-05-15T02:48:38;10.40;99.90
51793;DHT22;37850;53.178;6.376;2023-05-15T02:51:04;10.30;99.90
51793;DHT22;37850;53.178;6.376;2023-05-15T02:53:32;10.30;99.90
51793;DHT22;37850;53.178;6.376;2023-05-15T02:55:58;10.20;99.90
51793;DHT22;37850;53.178;6.376;2023-05-15T02:58:24;10.20;99.90
51793;DHT22;37850;53.178;6.376;2023-05-15T03:00:49;10.20;99.90
51793;DHT22;37850;53.178;6.376;2023-05-15T03:03:15;10.30;99.90
51793;DHT22;37850;53.178;6.376;2023-05-15T03:05:41;10.30;99.90
51793;DHT22;37850;53.178;6.376;2023-05-15T03:08:07;10.30;99.90
51793;DHT22;37850;53.178;6.376;2023-05-15T03:10:33;10.30;99.90
51793;DHT22;37850;53.178;6.376;2023-05-15T03:12:58;10.00;99.90
51793;DHT22;37850;53.178;6.376;2023-05-15T03:15:24;10.30;99.90
51793;DHT22;37850;53.178;6.376;2023-05-15T03:17:50;10.30;99.90
51793;DHT22;37850;53.178;6.376;2023-05-15T03:20:16;10.30;99.90
51793;DHT22;37850;53.178;6.376;2023-05-15T03:22:42;10.30;99.90
51793;DHT22;37850;53.178;6.376;2023-05-15T03:25:11;10.30;99.90
51793;DHT22;37850;53.178;6.376;2023-05-15T03:27:40;10.30;99.90
51793;DHT22;37850;53.178;6.376;2023-05-15T03:30:06;10.70;99.90
51793;DHT22;37850;53.178;6.376;2023-05-15T03:32:32;10.20;99.90
51793;DHT22;37850;53.178;6.376;2023-05-15T03:34:58;10.20;99.90
51793;DHT22;37850;53.178;6.376;2023-05-15T03:37:24;10.30;99.90
51793;DHT22;37850;53.178;6.376;2023-05-15T03:39:50;10.20;99.90
51793;DHT22;37850;53.178;6.376;2023-05-15T03:42:15;10.20;99.90
51793;DHT22;37850;53.178;6.376;2023-05-15T03:44:50;10.30;99.90
51793;DHT22;37850;53.178;6.376;2023-05-15T03:47:16;10.20;99.90
51793;DHT22;37850;53.178;6.376;2023-05-15T03:49:42;10.30;99.90
51793;DHT22;37850;53.178;6.376;2023-05-15T03:52:08;10.30;99.90
51793;DHT22;37850;53.178;6.376;2023-05-15T03:54:34;10.30;99.90
51793;DHT22;37850;53.178;6.376;2023-05-15T03:57:00;10.30;99.90
51793;DHT22;37850;53.178;6.376;2023-05-15T03:59:27;10.80;99.90
51793;DHT22;37850;53.178;6.376;2023-05-15T04:01:53;10.30;99.90
51793;DHT22;37850;53.178;6.376;2023-05-15T04:04:19;10.50;99.90
51793;DHT22;37850;53.178;6.376;2023-05-15T04:06:44;10.90;99.90
51793;DHT22;37850;53.178;6.376;2023-05-15T04:09:10;10.30;99.90
51793;DHT22;37850;53.178;6.376;2023-05-15T04:11:39;10.30;99.90
51793;DHT22;37850;53.178;6.376;2023-05-15T04:14:04;10.30;99.90
51793;DHT22;37850;53.178;6.376;2023-05-15T04:16:30;10.30;99.90
51793;DHT22;37850;53.178;6.376;2023-05-15T04:18:56;10.80;99.90
51793;DHT22;37850;53.178;6.376;2023-05-15T04:21:21;10.30;99.90
51793;DHT22;37850;53.178;6.376;2023-05-15T04:23:47;10.30;99.90
51793;DHT22;37850;53.178;6.376;2023-05-15T04:26:13;10.70;99.90
51793;DHT22;37850;53.178;6.376;2023-05-15T04:28:39;10.30;99.90
51793;DHT22;37850;53.178;6.376;2023-05-15T04:31:04;10.30;99.90
51793;DHT22;37850;53.178;6.376;2023-05-15T04:33:30;10.40;99.90
51793;DHT22;37850;53.178;6.376;2023-05-15T04:35:56;10.40;99.90
51793;DHT22;37850;53.178;6.376;2023-05-15T04:38:21;10.90;99.90
51793;DHT22;37850;53.178;6.376;2023-05-15T04:40:50;10.50;99.90
51793;DHT22;37850;53.178;6.376;2023-05-15T04:43:15;10.60;99.90
51793;DHT22;37850;53.178;6.376;2023-05-15T04:45:41;10.60;99.90
51793;DHT22;37850;53.178;6.376;2023-05-15T04:48:10;10.60;99.90
51793;DHT22;37850;53.178;6.376;2023-05-15T04:50:35;10.60;99.90
51793;DHT22;37850;53.178;6.376;2023-05-15T04:53:01;10.70;99.90
51793;DHT22;37850;53.178;6.376;2023-05-15T04:55:28;10.70;99.90
51793;DHT22;37850;53.178;6.376;2023-05-15T04:57:53;10.70;99.90
51793;DHT22;37850;53.178;6.376;2023-05-15T05:00:19;10.70;99.90
51793;DHT22;37850;53.178;6.376;2023-05-15T05:02:45;10.70;99.90
51793;DHT22;37850;53.178;6.376;2023-05-15T05:05:10;10.70;99.90
51793;DHT22;37850;53.178;6.376;2023-05-15T05:07:39;10.70;99.90
51793;DHT22;37850;53.178;6.376;2023-05-15T05:10:05;10.70;99.90
51793;DHT22;37850;53.178;6.376;2023-05-15T05:12:31;10.80;99.90
51793;DHT22;37850;53.178;6.376;2023-05-15T05:14:57;11.00;99.90
51793;DHT22;37850;53.178;6.376;2023-05-15T05:17:22;10.80;99.90
51793;DHT22;37850;53.178;6.376;2023-05-15T05:19:48;11.10;99.90
51793;DHT22;37850;53.178;6.376;2023-05-15T05:22:14;10.80;99.90
51793;DHT22;37850;53.178;6.376;2023-05-15T05:24:40;10.80;99.90
51793;DHT22;37850;53.178;6.376;2023-05-15T05:27:05;10.80;99.90
51793;DHT22;37850;53.178;6.376;2023-05-15T05:29:33;10.90;99.90
51793;DHT22;37850;53.178;6.376;2023-05-15T05:31:59;10.80;99.90
51793;DHT22;37850;53.178;6.376;2023-05-15T05:34:25;10.90;99.90
51793;DHT22;37850;53.178;6.376;2023-05-15T05:36:54;11.00;99.90
51793;DHT22;37850;53.178;6.376;2023-05-15T05:39:20;11.60;99.90
51793;DHT22;37850;53.178;6.376;2023-05-15T05:41:45;11.00;99.90
51793;DHT22;37850;53.178;6.376;2023-05-15T05:44:11;11.10;99.90
51793;DHT22;37850;53.178;6.376;2023-05-15T05:46:37;11.20;99.90
51793;DHT22;37850;53.178;6.376;2023-05-15T05:49:03;11.10;99.90
51793;DHT22;37850;53.178;6.376;2023-05-15T05:51:29;11.10;99.90
51793;DHT22;37850;53.178;6.376;2023-05-15T05:53:55;11.10;99.90
51793;DHT22;37850;53.178;6.376;2023-05-15T05:56:21;11.10;99.90
51793;DHT22;37850;53.178;6.376;2023-05-15T05:58:51;11.10;99.90
51793;DHT22;37850;53.178;6.376;2023-05-15T06:01:16;11.20;99.90
51793;DHT22;37850;53.178;6.376;2023-05-15T06:03:42;11.20;99.90
51793;DHT22;37850;53.178;6.376;2023-05-15T06:06:09;11.30;99.90
51793;DHT22;37850;53.178;6.376;2023-05-15T06:08:34;12.20;99.90
51793;DHT22;37850;53.178;6.376;2023-05-15T06:11:00;11.40;99.90
51793;DHT22;37850;53.178;6.376;2023-05-15T06:13:26;11.60;99.90
51793;DHT22;37850;53.178;6.376;2023-05-15T06:15:52;11.30;99.90
51793;DHT22;37850;53.178;6.376;2023-05-15T06:18:17;11.40;99.90
51793;DHT22;37850;53.178;6.376;2023-05-15T06:20:43;11.40;99.90
51793;DHT22;37850;53.178;6.376;2023-05-15T06:23:09;11.40;99.90
51793;DHT22;37850;53.178;6.376;2023-05-15T06:25:35;11.40;99.90
51793;DHT22;37850;53.178;6.376;2023-05-15T06:28:00;11.40;99.90
51793;DHT22;37850;53.178;6.376;2023-05-15T06:30:26;11.50;99.90
51793;DHT22;37850;53.178;6.376;2023-05-15T06:32:52;11.40;99.90
51793;DHT22;37850;53.178;6.376;2023-05-15T06:35:18;11.50;99.90
51793;DHT22;37850;53.178;6.376;2023-05-15T06:37:44;12.00;99.90
51793;DHT22;37850;53.178;6.376;2023-05-15T06:40:15;11.40;99.90
51793;DHT22;37850;53.178;6.376;2023-05-15T06:42:41;11.50;99.90
51793;DHT22;37850;53.178;6.376;2023-05-15T06:45:10;11.50;99.90
51793;DHT22;37850;53.178;6.376;2023-05-15T06:47:35;11.50;99.90
51793;DHT22;37850;53.178;6.376;2023-05-15T06:50:02;11.50;99.90
51793;DHT22;37850;53.178;6.376;2023-05-15T06:52:28;11.50;99.90
51793;DHT22;37850;53.178;6.376;2023-05-15T06:54:54;11.70;99.90
51793;DHT22;37850;53.178;6.376;2023-05-15T06:57:20;11.60;99.90
51793;DHT22;37850;53.178;6.376;2023-05-15T06:59:45;11.70;99.90
51793;DHT22;37850;53.178;6.376;2023-05-15T07:02:11;11.70;99.90
51793;DHT22;37850;53.178;6.376;2023-05-15T07:04:40;11.60;99.90
51793;DHT22;37850;53.178;6.376;2023-05-15T07:07:05;11.80;99.90
51793;DHT22;37850;53.178;6.376;2023-05-15T07:09:31;11.70;99.90
51793;DHT22;37850;53.178;6.376;2023-05-15T07:11:57;11.70;99.90
51793;DHT22;37850;53.178;6.376;2023-05-15T07:14:23;11.70;99.90
51793;DHT22;37850;53.178;6.376;2023-05-15T07:16:48;11.70;99.90
51793;DHT22;37850;53.178;6.376;2023-05-15T07:19:17;11.80;99.90
51793;DHT22;37850;53.178;6.376;2023-05-15T07:21:45;11.80;99.90
51793;DHT22;37850;53.178;6.376;2023-05-15T07:24:11;12.10;99.90
51793;DHT22;37850;53.178;6.376;2023-05-15T07:26:40;11.80;99.90
51793;DHT22;37850;53.178;6.376;2023-05-15T07:29:05;11.80;99.90
51793;DHT22;37850;53.178;6.376;2023-05-15T07:31:31;11.80;99.90
51793;DHT22;37850;53.178;6.376;2023-05-15T07:33:58;11.90;99.90
51793;DHT22;37850;53.178;6.376;2023-05-15T07:36:23;11.90;99.90
51793;DHT22;37850;53.178;6.376;2023-05-15T07:38:49;11.90;99.90
51793;DHT22;37850;53.178;6.376;2023-05-15T07:41:15;12.20;99.90
51793;DHT22;37850;53.178;6.376;2023-05-15T07:43:40;12.10;99.90
51793;DHT22;37850;53.178;6.376;2023-05-15T07:46:09;12.20;99.90
51793;DHT22;37850;53.178;6.376;2023-05-15T07:48:35;12.40;99.90
51793;DHT22;37850;53.178;6.376;2023-05-15T07:51:01;12.30;99.90
51793;DHT22;37850;53.178;6.376;2023-05-15T07:53:26;12.30;99.90
51793;DHT22;37850;53.178;6.376;2023-05-15T07:55:52;12.40;99.90
51793;DHT22;37850;53.178;6.376;2023-05-15T07:58:18;12.50;99.90
51793;DHT22;37850;53.178;6.376;2023-05-15T08:00:44;12.50;99.90
51793;DHT22;37850;53.178;6.376;2023-05-15T08:03:10;12.60;99.90
51793;DHT22;37850;53.178;6.376;2023-05-15T08:05:36;12.70;99.90
51793;DHT22;37850;53.178;6.376;2023-05-15T08:08:04;12.80;99.90
51793;DHT22;37850;53.178;6.376;2023-05-15T08:10:30;12.90;99.90
51793;DHT22;37850;53.178;6.376;2023-05-15T08:12:56;13.00;99.90
51793;DHT22;37850;53.178;6.376;2023-05-15T08:15:22;13.50;99.90
51793;DHT22;37850;53.178;6.376;2023-05-15T08:17:48;13.20;99.90
51793;DHT22;37850;53.178;6.376;2023-05-15T08:20:14;13.30;99.90
51793;DHT22;37850;53.178;6.376;2023-05-15T08:22:39;13.50;99.90
51793;DHT22;37850;53.178;6.376;2023-05-15T08:25:05;13.50;99.90
51793;DHT22;37850;53.178;6.376;2023-05-15T08:27:33;13.60;99.90
51793;DHT22;37850;53.178;6.376;2023-05-15T08:29:58;13.70;99.90
51793;DHT22;37850;53.178;6.376;2023-05-15T08:32:24;13.90;99.90
51793;DHT22;37850;53.178;6.376;2023-05-15T08:34:54;13.90;99.90
51793;DHT22;37850;53.178;6.376;2023-05-15T08:37:21;13.90;99.90
51793;DHT22;37850;53.178;6.376;2023-05-15T08:39:46;14.10;99.90
51793;DHT22;37850;53.178;6.376;2023-05-15T08:42:33;14.10;99.90
51793;DHT22;37850;53.178;6.376;2023-05-15T08:45:00;14.30;99.90
51793;DHT22;37850;53.178;6.376;2023-05-15T08:47:33;14.40;99.90
51793;DHT22;37850;53.178;6.376;2023-05-15T08:50:14;14.50;99.90
51793;DHT22;37850;53.178;6.376;2023-05-15T08:52:41;14.60;99.90
51793;DHT22;37850;53.178;6.376;2023-05-15T08:55:08;14.60;99.90
51793;DHT22;37850;53.178;6.376;2023-05-15T08:57:40;14.60;99.90
51793;DHT22;37850;53.178;6.376;2023-05-15T09:00:07;14.70;99.90
51793;DHT22;37850;53.178;6.376;2023-05-15T09:02:37;14.70;99.90
51793;DHT22;37850;53.178;6.376;2023-05-15T09:05:04;14.80;99.90
51793;DHT22;37850;53.178;6.376;2023-05-15T09:07:31;14.80;99.90
51793;DHT22;37850;53.178;6.376;2023-05-15T09:09:58;14.90;99.90
51793;DHT22;37850;53.178;6.376;2023-05-15T09:12:25;14.90;99.90
51793;DHT22;37850;53.178;6.376;2023-05-15T09:14:58;15.00;99.90
51793;DHT22;37850;53.178;6.376;2023-05-15T09:17:32;15.10;99.90
51793;DHT22;37850;53.178;6.376;2023-05-15T09:19:57;15.30;99.90
51793;DHT22;37850;53.178;6.376;2023-05-15T09:22:23;15.20;99.90
51793;DHT22;37850;53.178;6.376;2023-05-15T09:24:51;15.30;99.90
51793;DHT22;37850;53.178;6.376;2023-05-15T09:27:18;15.40;99.90
51793;DHT22;37850;53.178;6.376;2023-05-15T09:29:44;15.40;99.90
51793;DHT22;37850;53.178;6.376;2023-05-15T09:32:12;15.50;99.90
51793;DHT22;37850;53.178;6.376;2023-05-15T09:34:40;15.50;99.90
51793;DHT22;37850;53.178;6.376;2023-05-15T09:37:09;15.50;99.90
51793;DHT22;37850;53.178;6.376;2023-05-15T09:39:42;15.50;99.90
51793;DHT22;37850;53.178;6.376;2023-05-15T09:42:13;15.60;99.90
51793;DHT22;37850;53.178;6.376;2023-05-15T09:44:42;15.60;99.90
51793;DHT22;37850;53.178;6.376;2023-05-15T09:47:10;15.70;99.90
51793;DHT22;37850;53.178;6.376;2023-05-15T09:49:36;15.70;99.90
51793;DHT22;37850;53.178;6.376;2023-05-15T09:52:02;15.70;99.90
51793;DHT22;37850;53.178;6.376;2023-05-15T09:54:28;15.70;99.90
51793;DHT22;37850;53.178;6.376;2023-05-15T09:56:55;15.70;99.90
51793;DHT22;37850;53.178;6.376;2023-05-15T09:59:21;15.70;99.90
51793;DHT22;37850;53.178;6.376;2023-05-15T10:01:49;15.60;99.90
51793;DHT22;37850;53.178;6.376;2023-05-15T10:04:16;15.60;99.90
51793;DHT22;37850;53.178;6.376;2023-05-15T10:06:46;15.70;99.90
51793;DHT22;37850;53.178;6.376;2023-05-15T10:09:12;15.80;99.90
51793;DHT22;37850;53.178;6.376;2023-05-15T10:11:43;15.80;99.90
51793;DHT22;37850;53.178;6.376;2023-05-15T10:14:11;15.70;99.90
51793;DHT22;37850;53.178;6.376;2023-05-15T10:16:39;15.70;99.90
51793;DHT22;37850;53.178;6.376;2023-05-15T10:19:07;15.70;99.90
51793;DHT22;37850;53.178;6.376;2023-05-15T10:21:38;15.80;99.90
51793;DHT22;37850;53.178;6.376;2023-05-15T10:24:05;15.80;99.90
51793;DHT22;37850;53.178;6.376;2023-05-15T10:26:35;15.90;99.90
51793;DHT22;37850;53.178;6.376;2023-05-15T10:29:12;16.00;99.90
51793;DHT22;37850;53.178;6.376;2023-05-15T10:31:41;16.10;99.90
51793;DHT22;37850;53.178;6.376;2023-05-15T10:34:08;16.10;99.90
51793;DHT22;37850;53.178;6.376;2023-05-15T10:36:36;16.20;99.90
51793;DHT22;37850;53.178;6.376;2023-05-15T10:39:04;16.20;99.90
51793;DHT22;37850;53.178;6.376;2023-05-15T10:41:38;16.30;99.90
51793;DHT22;37850;53.178;6.376;2023-05-15T10:44:04;16.30;99.90
51793;DHT22;37850;53.178;6.376;2023-05-15T10:46:32;16.30;99.90
51793;DHT22;37850;53.178;6.376;2023-05-15T10:48:59;16.40;99.90
51793;DHT22;37850;53.178;6.376;2023-05-15T10:51:30;16.40;99.90
51793;DHT22;37850;53.178;6.376;2023-05-15T10:53:59;16.50;99.90
51793;DHT22;37850;53.178;6.376;2023-05-15T10:56:28;16.50;99.90
51793;DHT22;37850;53.178;6.376;2023-05-15T10:58:55;16.40;99.90
51793;DHT22;37850;53.178;6.376;2023-05-15T11:01:32;16.40;99.90
51793;DHT22;37850;53.178;6.376;2023-05-15T11:06:32;16.20;99.90
51793;DHT22;37850;53.178;6.376;2023-05-15T11:11:55;16.20;99.90
51793;DHT22;37850;53.178;6.376;2023-05-15T11:14:39;16.30;99.90
51793;DHT22;37850;53.178;6.376;2023-05-15T11:17:12;16.40;99.90
51793;DHT22;37850;53.178;6.376;2023-05-15T11:35:21;16.40;99.90
51793;DHT22;37850;53.178;6.376;2023-05-15T11:38:11;16.30;99.90
51793;DHT22;37850;53.178;6.376;2023-05-15T11:40:47;16.40;99.90
51793;DHT22;37850;53.178;6.376;2023-05-15T11:43:26;16.40;99.90
51793;DHT22;37850;53.178;6.376;2023-05-15T11:45:56;16.40;99.90
51793;DHT22;37850;53.178;6.376;2023-05-15T11:48:24;16.40;99.90
51793;DHT22;37850;53.178;6.376;2023-05-15T11:50:50;16.40;99.90
51793;DHT22;37850;53.178;6.376;2023-05-15T11:53:19;16.40;99.90
51793;DHT22;37850;53.178;6.376;2023-05-15T11:55:47;16.40;99.90
51793;DHT22;37850;53.178;6.376;2023-05-15T11:58:15;16.50;99.90
51793;DHT22;37850;53.178;6.376;2023-05-15T12:00:46;16.60;99.90
51793;DHT22;37850;53.178;6.376;2023-05-15T12:03:35;16.60;99.90
51793;DHT22;37850;53.178;6.376;2023-05-15T12:06:02;16.60;99.90
51793;DHT22;37850;53.178;6.376;2023-05-15T12:08:35;16.60;99.90
51793;DHT22;37850;53.178;6.376;2023-05-15T12:11:04;16.70;99.90
51793;DHT22;37850;53.178;6.376;2023-05-15T12:13:31;16.70;99.90
51793;DHT22;37850;53.178;6.376;2023-05-15T12:15:57;16.70;99.90
51793;DHT22;37850;53.178;6.376;2023-05-15T12:18:23;16.60;99.90
51793;DHT22;37850;53.178;6.376;2023-05-15T12:20:51;16.50;99.90
51793;DHT22;37850;53.178;6.376;2023-05-15T12:23:20;16.50;99.90
51793;DHT22;37850;53.178;6.376;2023-05-15T12:25:48;16.50;99.90
51793;DHT22;37850;53.178;6.376;2023-05-15T12:28:14;16.50;99.90
51793;DHT22;37850;53.178;6.376;2023-05-15T12:30:41;16.40;99.90
51793;DHT22;37850;53.178;6.376;2023-05-15T12:33:11;16.40;99.90
51793;DHT22;37850;53.178;6.376;2023-05-15T12:35:41;16.40;99.90
51793;DHT22;37850;53.178;6.376;2023-05-15T12:38:15;16.40;99.90
51793;DHT22;37850;53.178;6.376;2023-05-15T12:40:43;16.40;99.90
51793;DHT22;37850;53.178;6.376;2023-05-15T12:43:15;16.30;99.90
51793;DHT22;37850;53.178;6.376;2023-05-15T12:45:40;16.40;99.90
51793;DHT22;37850;53.178;6.376;2023-05-15T12:48:06;16.30;99.90
51793;DHT22;37850;53.178;6.376;2023-05-15T12:50:33;16.10;99.90
51793;DHT22;37850;53.178;6.376;2023-05-15T12:53:02;16.00;99.90
51793;DHT22;37850;53.178;6.376;2023-05-15T12:55:33;15.90;99.90
51793;DHT22;37850;53.178;6.376;2023-05-15T12:58:10;15.90;99.90
51793;DHT22;37850;53.178;6.376;2023-05-15T13:00:41;15.90;99.90
51793;DHT22;37850;53.178;6.376;2023-05-15T13:03:09;15.90;99.90
51793;DHT22;37850;53.178;6.376;2023-05-15T13:05:43;15.80;99.90
51793;DHT22;37850;53.178;6.376;2023-05-15T13:08:17;15.70;99.90
51793;DHT22;37850;53.178;6.376;2023-05-15T13:10:43;15.70;99.90
51793;DHT22;37850;53.178;6.376;2023-05-15T13:13:12;15.60;99.90
51793;DHT22;37850;53.178;6.376;2023-05-15T13:15:43;15.70;99.90
51793;DHT22;37850;53.178;6.376;2023-05-15T13:18:17;15.70;99.90
51793;DHT22;37850;53.178;6.376;2023-05-15T13:20:48;15.60;99.90
51793;DHT22;37850;53.178;6.376;2023-05-15T13:23:18;15.60;99.90
51793;DHT22;37850;53.178;6.376;2023-05-15T13:25:45;15.50;99.90
51793;DHT22;37850;53.178;6.376;2023-05-15T13:28:11;15.50;99.90
51793;DHT22;37850;53.178;6.376;2023-05-15T13:30:38;15.50;99.90
51793;DHT22;37850;53.178;6.376;2023-05-15T13:33:10;15.50;99.90
51793;DHT22;37850;53.178;6.376;2023-05-15T13:35:38;15.50;99.90
51793;DHT22;37850;53.178;6.376;2023-05-15T13:38:04;15.50;99.90
51793;DHT22;37850;53.178;6.376;2023-05-15T13:40:30;15.50;99.90
51793;DHT22;37850;53.178;6.376;2023-05-15T13:43:01;15.50;99.90
51793;DHT22;37850;53.178;6.376;2023-05-15T13:45:27;15.50;99.90
51793;DHT22;37850;53.178;6.376;2023-05-15T13:47:56;15.50;99.90
51793;DHT22;37850;53.178;6.376;2023-05-15T13:50:22;15.50;99.90
51793;DHT22;37850;53.178;6.376;2023-05-15T13:52:48;15.50;99.90
51793;DHT22;37850;53.178;6.376;2023-05-15T13:55:14;15.50;99.90
51793;DHT22;37850;53.178;6.376;2023-05-15T13:57:40;15.50;99.90
51793;DHT22;37850;53.178;6.376;2023-05-15T14:00:08;15.40;99.90
51793;DHT22;37850;53.178;6.376;2023-05-15T14:02:40;15.40;99.90
51793;DHT22;37850;53.178;6.376;2023-05-15T14:05:08;15.50;99.90
51793;DHT22;37850;53.178;6.376;2023-05-15T14:07:34;15.50;99.90
51793;DHT22;37850;53.178;6.376;2023-05-15T14:09:59;15.40;99.90
51793;DHT22;37850;53.178;6.376;2023-05-15T14:12:25;15.40;99.90
51793;DHT22;37850;53.178;6.376;2023-05-15T14:14:51;15.30;99.90
51793;DHT22;37850;53.178;6.376;2023-05-15T14:17:17;15.30;99.90
51793;DHT22;37850;53.178;6.376;2023-05-15T14:19:43;15.30;99.90
51793;DHT22;37850;53.178;6.376;2023-05-15T14:22:09;15.30;99.90
51793;DHT22;37850;53.178;6.376;2023-05-15T14:24:35;15.20;99.90
51793;DHT22;37850;53.178;6.376;2023-05-15T14:27:01;15.20;99.90
51793;DHT22;37850;53.178;6.376;2023-05-15T14:29:26;15.20;99.90
51793;DHT22;37850;53.178;6.376;2023-05-15T14:31:52;15.10;99.90
51793;DHT22;37850;53.178;6.376;2023-05-15T14:34:19;15.10;99.90
51793;DHT22;37850;53.178;6.376;2023-05-15T14:36:47;15.20;99.90
51793;DHT22;37850;53.178;6.376;2023-05-15T14:39:16;15.10;99.90
51793;DHT22;37850;53.178;6.376;2023-05-15T14:41:43;15.10;99.90
51793;DHT22;37850;53.178;6.376;2023-05-15T14:44:09;15.10;99.90
51793;DHT22;37850;53.178;6.376;2023-05-15T14:46:35;15.00;99.90
51793;DHT22;37850;53.178;6.376;2023-05-15T14:49:04;14.80;99.90
51793;DHT22;37850;53.178;6.376;2023-05-15T14:51:30;14.80;99.90
51793;DHT22;37850;53.178;6.376;2023-05-15T14:53:56;14.90;99.90
51793;DHT22;37850;53.178;6.376;2023-05-15T14:56:22;14.80;99.90
51793;DHT22;37850;53.178;6.376;2023-05-15T14:58:50;14.80;99.90
51793;DHT22;37850;53.178;6.376;2023-05-15T15:01:16;14.60;99.90
51793;DHT22;37850;53.178;6.376;2023-05-15T15:03:42;14.70;99.90
51793;DHT22;37850;53.178;6.376;2023-05-15T15:06:08;14.50;99.90
51793;DHT22;37850;53.178;6.376;2023-05-15T15:08:33;14.50;99.90
51793;DHT22;37850;53.178;6.376;2023-05-15T15:10:59;14.60;99.90
51793;DHT22;37850;53.178;6.376;2023-05-15T15:13:26;14.40;99.90
51793;DHT22;37850;53.178;6.376;2023-05-15T15:15:54;14.30;99.90
51793;DHT22;37850;53.178;6.376;2023-05-15T15:18:20;14.40;99.90
51793;DHT22;37850;53.178;6.376;2023-05-15T15:20:46;14.30;99.90
51793;DHT22;37850;53.178;6.376;2023-05-15T15:23:12;14.70;99.90
51793;DHT22;37850;53.178;6.376;2023-05-15T15:25:38;14.30;99.90
51793;DHT22;37850;53.178;6.376;2023-05-15T15:28:04;14.30;99.90
51793;DHT22;37850;53.178;6.376;2023-05-15T15:30:30;14.20;99.90
51793;DHT22;37850;53.178;6.376;2023-05-15T15:32:56;14.10;99.90
51793;DHT22;37850;53.178;6.376;2023-05-15T15:35:22;14.00;99.90
51793;DHT22;37850;53.178;6.376;2023-05-15T15:37:48;14.00;99.90
51793;DHT22;37850;53.178;6.376;2023-05-15T15:40:13;14.00;99.90
51793;DHT22;37850;53.178;6.376;2023-05-15T15:42:39;14.00;99.90
51793;DHT22;37850;53.178;6.376;2023-05-15T15:45:05;14.00;99.90
51793;DHT22;37850;53.178;6.376;2023-05-15T15:47:34;14.00;99.90
51793;DHT22;37850;53.178;6.376;2023-05-15T15:50:02;14.00;99.90
51793;DHT22;37850;53.178;6.376;2023-05-15T15:52:28;14.00;99.90
51793;DHT22;37850;53.178;6.376;2023-05-15T15:54:54;13.90;99.90
51793;DHT22;37850;53.178;6.376;2023-05-15T15:57:20;13.90;99.90